createdAt,value
2017-11-19T09:42:54.187Z,97883.83
2017-11-19T09:45:21.823Z,97882.47
2017-11-19T09:47:49.304Z,97886.83
2017-11-19T09:50:16.870Z,97886.19
2017-11-19T09:52:44.397Z,97889.20
2017-11-19T09:55:11.925Z,97893.39
2017-11-19T09:57:39.712Z,97897.94
2017-11-19T10:00:07.233Z,97898.05
2017-11-19T10:02:34.789Z,97903.64
2017-11-19T10:05:02.466Z,97913.89
2017-11-19T10:07:30.036Z,97910.59
2017-11-19T10:09:57.987Z,97913.19
2017-11-19T10:12:25.703Z,97912.87
2017-11-19T10:14:53.284Z,97915.81
2017-11-19T10:17:20.854Z,97917.20
2017-11-19T10:19:48.414Z,97918.13
2017-11-19T10:22:15.958Z,97914.88
2017-11-19T10:24:43.533Z,97929.31
2017-11-19T10:27:11.211Z,97911.64
2017-11-19T10:29:38.749Z,97912.61
2017-11-19T10:32:07.211Z,97909.12
2017-11-19T10:34:34.718Z,97908.38
2017-11-19T10:37:02.254Z,97916.51
2017-11-19T10:39:29.773Z,97882.69
2017-11-19T10:41:57.933Z,97915.14
2017-11-19T10:44:25.532Z,97912.87
2017-11-19T10:46:53.074Z,97911.55
2017-11-19T10:49:20.730Z,97918.30
2017-11-19T10:51:48.350Z,97918.44
2017-11-19T10:54:15.889Z,97928.36
2017-11-19T10:56:43.438Z,97928.95
2017-11-19T10:59:11.459Z,97920.71
2017-11-19T11:01:39.057Z,97903.27
2017-11-19T11:04:06.630Z,97930.11
2017-11-19T11:06:34.250Z,97930.20
2017-11-19T11:09:01.926Z,97927.98
2017-11-19T11:11:30.422Z,97913.09
2017-11-19T11:13:58.068Z,97911.96
2017-11-19T11:16:25.725Z,97883.75
2017-11-19T11:18:53.297Z,97905.25
2017-11-19T11:21:22.736Z,97904.70
2017-11-19T11:23:50.344Z,97910.00
2017-11-19T11:26:18.157Z,97909.91
2017-11-19T11:28:46.801Z,97901.98
2017-11-19T11:31:16.567Z,97900.85
2017-11-19T11:33:45.113Z,97904.70
2017-11-19T11:36:13.470Z,97902.66
2017-11-19T11:38:41.863Z,97905.81
2017-11-19T11:41:09.848Z,97901.66
2017-11-19T11:43:38.537Z,97903.17
2017-11-19T11:46:08.496Z,97905.72
2017-11-19T11:48:37.609Z,97908.38
2017-11-19T11:51:05.667Z,97909.49
2017-11-19T11:53:35.892Z,97910.31
2017-11-19T11:59:03.284Z,97912.72
2017-11-19T12:01:34.244Z,97911.63
2017-11-19T12:10:45.279Z,97916.70
2017-11-19T12:13:14.176Z,97915.08
2017-11-19T12:15:42.585Z,97921.20
2017-11-19T12:18:32.432Z,97880.14
2017-11-19T12:21:01.006Z,97910.06
2017-11-19T12:23:29.611Z,97903.81
2017-11-19T12:26:04.082Z,97912.82
2017-11-19T12:28:38.394Z,97914.27
2017-11-19T12:31:06.454Z,97919.30
2017-11-19T12:33:36.351Z,97919.64
2017-11-19T12:36:05.723Z,97922.83
2017-11-19T12:38:35.035Z,97920.66
2017-11-19T12:41:06.506Z,97896.03
2017-11-19T12:43:34.561Z,97910.20
2017-11-19T12:46:02.773Z,97922.28
2017-11-19T12:48:33.518Z,97918.22
2017-11-19T12:51:19.215Z,97891.32
2017-11-19T12:54:18.165Z,97907.84
2017-11-19T12:56:55.734Z,97905.85
2017-11-19T13:02:28.482Z,97915.31
2017-11-19T13:05:04.366Z,97918.53
2017-11-19T13:25:07.061Z,97911.63
2017-11-19T13:27:34.951Z,97910.41
2017-11-19T13:30:10.659Z,97841.47
2017-11-19T13:35:45.791Z,97917.33
2017-11-19T13:38:17.269Z,97916.42
2017-11-19T13:43:34.688Z,97908.95
2017-11-19T13:46:02.592Z,97919.78
2017-11-19T13:48:30.651Z,97920.19
2017-11-19T13:53:33.261Z,97917.37
2017-11-19T13:56:22.221Z,97924.20
2017-11-19T13:58:59.941Z,97938.95
2017-11-19T14:01:38.188Z,97939.84
2017-11-19T14:06:59.093Z,97944.29
2017-11-19T14:09:40.340Z,97948.42
2017-11-19T14:15:32.777Z,97959.80
2017-11-19T14:34:02.505Z,97973.77
2017-11-19T14:36:30.977Z,97984.50
2017-11-19T14:39:01.177Z,97965.70
2017-11-19T15:54:18.983Z,98047.88
2017-11-19T15:56:47.518Z,98047.41
2017-11-19T15:59:15.115Z,98052.31
2017-11-19T16:01:42.985Z,98054.36
2017-11-19T16:04:12.627Z,98063.38
2017-11-19T16:06:40.219Z,98064.26
2017-11-19T16:09:07.826Z,98065.81
2017-11-19T16:11:35.422Z,98066.46
2017-11-19T16:14:03.017Z,98064.98
2017-11-19T16:16:30.688Z,98065.70
2017-11-19T16:18:59.317Z,98076.77
2017-11-19T16:21:28.013Z,98074.94
2017-11-19T16:23:55.630Z,98064.41
2017-11-19T16:26:25.281Z,98073.42
2017-11-19T16:28:53.842Z,98067.58
2017-11-19T16:31:22.903Z,98076.19
2017-11-19T16:33:51.429Z,98078.14
2017-11-19T16:36:20.062Z,98084.28
2017-11-19T16:38:48.879Z,98076.67
2017-11-19T16:41:16.800Z,98082.50
2017-11-19T16:43:44.794Z,98087.07
2017-11-19T16:46:12.693Z,98087.42
2017-11-19T16:48:40.929Z,98073.18
2017-11-19T16:51:11.487Z,98090.88
2017-11-19T16:53:39.269Z,98088.01
2017-11-19T16:56:07.121Z,98091.80
2017-11-19T16:58:36.062Z,98095.05
2017-11-19T17:01:03.892Z,98091.28
2017-11-19T17:03:33.027Z,98090.92
2017-11-19T17:06:01.624Z,98090.16
2017-11-19T17:08:29.455Z,98088.45
2017-11-19T17:10:57.649Z,98093.29
2017-11-19T17:13:25.287Z,98094.70
2017-11-19T17:15:53.363Z,98099.48
2017-11-19T17:18:22.217Z,98103.33
2017-11-19T17:20:50.773Z,98100.11
2017-11-19T17:23:20.579Z,98104.80
2017-11-19T17:25:50.116Z,98106.11
2017-11-19T17:28:20.293Z,98100.71
2017-11-19T17:30:55.885Z,98103.37
2017-11-19T17:33:25.572Z,98112.49
2017-11-19T17:39:09.419Z,98114.29
2017-11-19T17:41:37.147Z,98128.94
2017-11-19T17:46:41.870Z,98127.80
2017-11-19T17:49:12.542Z,98127.22
2017-11-19T17:51:44.057Z,98129.00
2017-11-19T17:54:19.386Z,98125.14
2017-11-19T17:56:47.660Z,98132.53
2017-11-19T17:59:19.261Z,98137.52
2017-11-19T18:01:48.528Z,98147.30
2017-11-19T18:04:16.239Z,98140.83
2017-11-19T18:06:45.363Z,98150.45
2017-11-19T18:09:14.596Z,98146.48
2017-11-19T18:11:43.761Z,98151.57
2017-11-19T18:16:47.343Z,98164.53
2017-11-19T18:19:17.193Z,98165.20
2017-11-19T18:21:46.873Z,98133.45
2017-11-19T18:24:16.188Z,98156.50
2017-11-19T18:26:45.152Z,98165.39
2017-11-19T18:29:20.349Z,98169.24
2017-11-19T18:31:48.889Z,98169.75
2017-11-19T18:34:21.783Z,98177.48
2017-11-19T18:36:51.581Z,98180.04
2017-11-19T18:39:19.553Z,98179.92
2017-11-19T18:41:49.536Z,98186.41
2017-11-19T18:44:18.092Z,98195.22
2017-11-19T18:46:47.129Z,98195.50
2017-11-19T18:49:15.229Z,98200.48
2017-11-19T18:51:45.085Z,98205.31
2017-11-19T18:54:13.491Z,98210.63
2017-11-19T18:56:42.481Z,98206.84
2017-11-19T18:59:13.182Z,98209.30
2017-11-19T19:01:47.151Z,98212.05
2017-11-19T19:04:20.997Z,98214.61
2017-11-19T19:06:54.111Z,98213.80
2017-11-19T19:09:25.424Z,98218.30
2017-11-19T19:11:54.224Z,98224.45
2017-11-19T19:14:24.702Z,98222.42
2017-11-19T19:19:47.008Z,98214.77
2017-11-19T19:22:22.966Z,98214.39
2017-11-19T19:24:51.867Z,98217.23
2017-11-19T19:27:19.990Z,98222.12
2017-11-19T19:29:47.895Z,98225.36
2017-11-19T19:32:18.016Z,98230.16
2017-11-19T19:34:46.297Z,98218.55
2017-11-19T19:37:17.068Z,98227.32
2017-11-19T19:39:45.113Z,98230.93
2017-11-19T19:42:12.774Z,98237.41
2017-11-19T19:44:40.589Z,98228.44
2017-11-19T19:47:08.713Z,98221.19
2017-11-19T19:49:37.661Z,98242.47
2017-11-19T19:52:09.414Z,98247.62
2017-11-19T19:54:38.551Z,98248.41
2017-11-19T19:57:10.804Z,98255.47
2017-11-19T19:59:42.637Z,98258.19
2017-11-19T20:02:12.780Z,98258.13
2017-11-19T20:04:51.083Z,98265.25
2017-11-19T20:07:20.132Z,98268.45
2017-11-19T20:09:49.382Z,98270.11
2017-11-19T20:12:20.410Z,98278.33
2017-11-19T20:14:53.363Z,98283.71
2017-11-19T20:17:25.620Z,98278.62
2017-11-19T20:19:57.873Z,98275.97
2017-11-19T20:22:26.159Z,98285.47
2017-11-19T20:24:53.915Z,98278.87
2017-11-19T20:27:22.520Z,98277.32
2017-11-19T20:29:50.928Z,98273.89
2017-11-19T20:32:21.796Z,98276.97
2017-11-19T20:34:53.518Z,98283.78
2017-11-19T20:37:23.151Z,98281.51
2017-11-19T20:39:56.494Z,98287.09
2017-11-19T20:42:25.832Z,98285.87
2017-11-19T20:44:55.168Z,98292.81
2017-11-19T20:47:25.003Z,98294.09
2017-11-19T20:49:53.217Z,98292.36
2017-11-19T20:52:22.478Z,98293.28
2017-11-19T20:54:51.750Z,98298.90
2017-11-19T20:57:19.776Z,98300.72
2017-11-19T20:59:48.951Z,98304.42
2017-11-19T21:02:16.786Z,98301.87
2017-11-19T21:04:44.834Z,98302.39
2017-11-19T21:07:14.142Z,98306.88
2017-11-19T21:09:42.062Z,98311.63
2017-11-19T21:12:10.176Z,98306.66
2017-11-19T21:14:38.041Z,98311.05
2017-11-19T21:17:05.689Z,98303.30
2017-11-19T21:19:33.585Z,98310.91
2017-11-19T21:22:01.565Z,98305.58
2017-11-19T21:24:29.448Z,98304.53
2017-11-19T21:26:57.399Z,98305.97
2017-11-19T21:29:26.160Z,98311.77
2017-11-19T21:31:53.973Z,98310.26
2017-11-19T21:34:22.292Z,98305.41
2017-11-19T21:36:52.528Z,98303.61
2017-11-19T21:39:20.503Z,98304.34
2017-11-19T21:41:48.778Z,98302.63
2017-11-19T21:44:16.820Z,98310.65
2017-11-19T21:46:45.498Z,98315.48
2017-11-19T21:49:15.044Z,98317.09
2017-11-19T21:51:43.617Z,98316.34
2017-11-19T21:54:11.226Z,98324.16
2017-11-19T21:56:40.381Z,98326.39
2017-11-19T21:59:09.688Z,98324.56
2017-11-19T22:01:41.174Z,98319.17
2017-11-19T22:04:10.231Z,98317.56
2017-11-19T22:06:39.442Z,98319.99
2017-11-19T22:09:07.388Z,98320.05
2017-11-19T22:11:35.046Z,98318.48
2017-11-19T22:14:03.039Z,98321.77
2017-11-19T22:16:30.919Z,98320.48
2017-11-19T22:18:58.705Z,98320.05
2017-11-19T22:21:30.232Z,98326.48
2017-11-19T22:23:58.236Z,98320.16
2017-11-19T22:26:26.567Z,98330.06
2017-11-19T22:28:56.243Z,98327.34
2017-11-19T22:31:25.269Z,98334.58
2017-11-19T22:33:54.405Z,98334.09
2017-11-19T22:36:22.442Z,98333.54
2017-11-19T22:38:51.393Z,98332.84
2017-11-19T22:41:19.928Z,98334.17
2017-11-19T22:43:47.885Z,98331.72
2017-11-19T22:46:19.729Z,98335.97
2017-11-19T22:48:47.523Z,98335.30
2017-11-19T22:51:16.937Z,98335.81
2017-11-19T22:53:44.616Z,98334.31
2017-11-19T22:56:12.778Z,98339.33
2017-11-19T22:58:41.927Z,98338.44
2017-11-19T23:01:09.545Z,98339.71
2017-11-19T23:03:37.483Z,98341.06
2017-11-19T23:06:05.378Z,98339.30
2017-11-19T23:08:33.010Z,98337.67
2017-11-19T23:11:01.910Z,98338.02
2017-11-19T23:13:30.386Z,98340.20
2017-11-19T23:15:59.850Z,98339.74
2017-11-19T23:18:28.244Z,98328.23
2017-11-19T23:20:56.602Z,98338.28
2017-11-19T23:23:24.581Z,98337.92
2017-11-19T23:25:52.219Z,98335.22
2017-11-19T23:28:20.900Z,98348.09
2017-11-19T23:30:48.773Z,98351.31
2017-11-19T23:33:16.808Z,98351.03
2017-11-19T23:35:44.607Z,98354.80
2017-11-19T23:38:12.542Z,98358.95
2017-11-19T23:40:40.797Z,98364.89
2017-11-19T23:43:08.620Z,98358.94
2017-11-19T23:45:37.973Z,98351.52
2017-11-19T23:48:05.869Z,98351.50
2017-11-19T23:50:33.512Z,98340.33
2017-11-19T23:53:01.198Z,98334.48
2017-11-19T23:55:31.662Z,98329.27
2017-11-19T23:58:00.597Z,98331.63
